West Haven, CT (06516)

1:18 PM EST on December 18, 2014 (GMT -0500)
Third Avenue Park | Change Station
CLOSE
Current Station
Personal Weather Station
Location: West Haven, CT
Elevation: 13 ft
Nearby Weather Stations

Elev 13 ft 41.27 °N, 72.94 °W | Updated 3 minutes ago

Overcast
Overcast
44.5 °F
Feels Like 43 °F
N
4.0
Wind Variable Wind from WNW
Gusts 16.0 mph

Today
High -- | Low -- °F
--% Chance of Precip.
Yesterday
High -- | Low -- °F
Precip. -- in
7:12 AM 4:24 PM
Waning Crescent, 13% visible
Pressure 29.89 in
Visibility 10.0 miles
Clouds Mostly Cloudy 4200 ft
Windchill 43 °F
Dew Point 31 °F
Humidity 58%
Rainfall 0.00 in
Snow Depth Not available.
UV 1 out of 12
Pollen .10 out of 12
Air Quality Not available.
Flu Activity Not available.
METAR KHVN 181753Z 31008KT 10SM BKN042 07/M03 A2989 RMK AO2 SLP120 T00721033 10072 20044 58012

More Conditions Fewer Conditions

Pressure 29.89 in
Visibility 10.0 miles
Clouds Mostly Cloudy 4200 ft
Windchill 43 °F
Dew Point 31 °F
Humidity 58%
Rainfall 0.00 in
Snow Depth Not available.
UV 1 out of 12
Pollen .10 out of 12
Air Quality Not available.
Flu Activity Not available.
METAR KHVN 181753Z 31008KT 10SM BKN042 07/M03 A2989 RMK AO2 SLP120 T00721033 10072 20044 58012

More Conditions Fewer Conditions

10-Day Weather Forecast

Almanac

Astronomy

Dec. 18, 2014 Rise Set
Actual Time
Civil Twilight
Nautical Twilight
Astronomical Twilight
Moon
Length of Visible Light
Length of Day
Tomorrow will be .
, % of the Moon is Illuminated

Today's Extremes

State Highs State Lows

Community

WunderPhotos

Upload Photos

1,778,972 photos uploaded!

WunderBlogs® & News

Nearby

Air Quality

  Air Quality AQ Index Pollutant
Not available.

Snow Depth

Station Depth Elevation

Earthquake Activity

City Distance Mag. Time & Date
Minimum magnitude displayed is 2.5.

Coastal Water Temperatures

Place Temperature

Nearby Weather Stations